Time;durP1;ratioP1;P1;durP2;ratioP2;P2;SDS_P1;SDS_P2;PMS_P1;PMS_P2;Temp;Humidity;BMP_temperature;BMP_pressure;BME280_temperature;BME280_humidity;BME280_pressure;Samples;Min_cycle;Max_cycle;Signal;HPM_P1;HPM_P2
2022/10/29 00:00:23;;;;;;;14.97;5.70;;;;;;;18.33;58.88;98188.69;5040060;28;20193;-71
2022/10/29 00:02:48;;;;;;;16.50;5.30;;;;;;;18.31;59.21;98196.00;5057650;28;20190;-70
2022/10/29 00:05:14;;;;;;;24.90;5.23;;;;;;;18.32;59.02;98203.78;5050099;28;20270;-70
2022/10/29 00:07:39;;;;;;;12.70;5.23;;;;;;;18.31;59.26;98196.00;5054303;28;20190;-71
2022/10/29 00:10:05;;;;;;;12.03;4.90;;;;;;;18.32;58.93;98189.69;5039530;28;20217;-71
2022/10/29 00:12:31;;;;;;;18.33;5.13;;;;;;;18.31;58.99;98191.53;5058235;28;20228;-71
2022/10/29 00:14:56;;;;;;;7.47;4.90;;;;;;;18.30;59.08;98197.00;5047243;28;20954;-71
2022/10/29 00:17:22;;;;;;;10.90;4.97;;;;;;;18.30;58.74;98191.69;5036303;28;20194;-71
2022/10/29 00:19:47;;;;;;;11.83;4.97;;;;;;;18.24;58.63;98186.09;5051979;28;20183;-71
2022/10/29 00:22:13;;;;;;;16.93;4.90;;;;;;;18.23;58.53;98187.09;5036466;28;20710;-70
2022/10/29 00:24:39;;;;;;;10.70;5.00;;;;;;;18.20;58.54;98184.81;5055823;28;20210;-71
2022/10/29 00:27:04;;;;;;;10.80;5.00;;;;;;;18.18;58.34;98181.50;5039937;28;20511;-70
2022/10/29 00:29:30;;;;;;;15.50;5.20;;;;;;;18.15;58.52;98181.84;5043876;28;20239;-70
2022/10/29 00:31:55;;;;;;;13.10;4.93;;;;;;;18.18;58.66;98180.69;5047137;28;20180;-71
2022/10/29 00:34:21;;;;;;;14.83;5.10;;;;;;;18.19;58.10;98188.47;5056474;28;20218;-71
2022/10/29 00:36:46;;;;;;;12.60;4.90;;;;;;;18.17;58.06;98187.81;5060106;28;20285;-71
2022/10/29 00:39:13;;;;;;;15.97;5.07;;;;;;;18.21;57.68;98197.06;5055620;28;20193;-71
2022/10/29 00:41:39;;;;;;;13.77;4.90;;;;;;;18.22;57.81;98193.41;5063209;28;20178;-71
2022/10/29 00:44:13;;;;;;;9.30;4.40;;;;;;;18.21;58.17;98183.81;5058798;28;20806;-71
2022/10/29 00:46:46;;;;;;;13.80;5.17;;;;;;;18.17;57.93;98179.84;5064298;28;20186;-71
2022/10/29 00:49:13;;;;;;;8.50;4.13;;;;;;;18.21;57.72;98183.81;5042190;28;20472;-71
2022/10/29 00:51:38;;;;;;;14.03;5.20;;;;;;;18.24;57.84;98187.91;5063163;28;20451;-71
2022/10/29 00:54:07;;;;;;;19.33;5.27;;;;;;;18.31;57.49;98190.69;5058202;28;20446;-71
2022/10/29 00:56:35;;;;;;;14.93;4.97;;;;;;;18.30;57.26;98189.03;5054846;28;20179;-71
2022/10/29 00:59:01;;;;;;;12.80;5.80;;;;;;;18.32;57.72;98189.69;5056317;28;20429;-71
2022/10/29 01:01:27;;;;;;;12.43;5.20;;;;;;;18.34;58.51;98185.03;5061437;28;20930;-71
2022/10/29 01:03:53;;;;;;;11.80;4.50;;;;;;;18.30;58.83;98192.53;5056233;28;20319;-71
2022/10/29 01:06:18;;;;;;;9.67;4.83;;;;;;;18.31;58.66;98188.03;5056027;28;20179;-71
2022/10/29 01:08:44;;;;;;;12.83;4.87;;;;;;;18.32;58.67;98185.22;5062941;28;20471;-70
2022/10/29 01:11:19;;;;;;;13.70;5.50;;;;;;;18.34;58.66;98190.34;5061462;28;20552;-71
2022/10/29 01:13:48;;;;;;;50.93;18.40;;;;;;;18.35;58.40;98181.38;5051114;28;20208;-71
2022/10/29 01:16:39;;;;;;;19.60;8.17;;;;;;;18.34;58.05;98180.53;5062567;28;20470;-72
2022/10/29 01:19:20;;;;;;;28.63;12.70;;;;;;;18.33;57.96;98183.38;5044288;28;20429;-69
2022/10/29 01:21:55;;;;;;;22.83;9.63;;;;;;;18.32;57.87;98179.06;5061470;28;20422;-71
2022/10/29 01:24:50;;;;;;;12.97;4.80;;;;;;;18.30;58.04;98175.78;5065313;28;20431;-71
2022/10/29 01:27:25;;;;;;;14.93;6.30;;;;;;;18.31;58.15;98172.13;5050466;28;20430;-70
2022/10/29 01:30:04;;;;;;;17.50;5.30;;;;;;;18.30;58.10;98166.00;5043063;28;20837;-70
2022/10/29 01:32:40;;;;;;;12.80;4.80;;;;;;;18.31;57.90;98165.00;5046116;28;20424;-70
2022/10/29 01:35:31;;;;;;;13.10;4.97;;;;;;;18.27;57.87;98159.19;5060896;28;20476;-71
2022/10/29 01:37:57;;;;;;;15.50;4.77;;;;;;;18.26;58.40;98157.56;5007601;28;20886;-73
2022/10/29 01:40:48;;;;;;;9.80;4.50;;;;;;;18.25;58.37;98163.88;5065170;28;20429;-70
2022/10/29 01:43:22;;;;;;;8.33;4.70;;;;;;;18.26;58.67;98159.38;5036833;28;20215;-71
2022/10/29 01:45:53;;;;;;;13.73;6.10;;;;;;;18.27;59.19;98167.16;5061782;28;20452;-70
2022/10/29 01:48:23;;;;;;;8.03;4.77;;;;;;;18.31;59.39;98164.16;5059092;28;20417;-71
2022/10/29 01:50:50;;;;;;;11.33;4.90;;;;;;;18.28;59.44;98160.03;5058700;28;20463;-71
2022/10/29 01:53:16;;;;;;;9.20;4.60;;;;;;;18.30;59.24;98154.53;5058196;28;20995;-70
2022/10/29 01:55:41;;;;;;;24.63;5.93;;;;;;;18.31;59.58;98156.19;5056042;28;20460;-71
2022/10/29 01:58:08;;;;;;;20.80;6.67;;;;;;;18.29;60.04;98144.94;5059378;28;20270;-70
2022/10/29 02:00:47;;;;;;;22.63;5.07;;;;;;;18.24;60.44;98145.47;5049390;28;20560;-70
2022/10/29 02:03:32;;;;;;;17.13;6.93;;;;;;;18.33;60.47;98140.94;5059606;28;20463;-70
2022/10/29 02:06:24;;;;;;;18.67;6.23;;;;;;;18.35;60.50;98141.56;5055418;28;20464;-71
2022/10/29 02:08:52;;;;;;;13.17;5.40;;;;;;;18.41;60.22;98140.84;5060742;28;20440;-70
2022/10/29 02:11:29;;;;;;;16.20;6.17;;;;;;;18.39;60.08;98138.38;5060748;28;20464;-70
2022/10/29 02:14:29;;;;;;;16.43;5.20;;;;;;;18.42;59.89;98139.84;5055341;28;20962;-70
2022/10/29 02:16:54;;;;;;;11.97;5.57;;;;;;;18.40;59.28;98129.41;5052026;28;20499;-70
2022/10/29 02:19:20;;;;;;;17.00;5.17;;;;;;;18.37;59.12;98124.47;5064284;28;20916;-70
2022/10/29 02:21:45;;;;;;;20.10;5.07;;;;;;;18.40;59.49;98120.63;5058661;28;20274;-70
2022/10/29 02:24:11;;;;;;;23.20;5.63;;;;;;;18.24;59.95;98121.59;5063293;28;20214;-70
2022/10/29 02:26:36;;;;;;;22.97;7.10;;;;;;;18.27;60.19;98122.06;5059430;28;20186;-70
2022/10/29 02:29:02;;;;;;;16.87;6.03;;;;;;;18.26;60.08;98115.13;5053828;28;20285;-70
2022/10/29 02:31:28;;;;;;;17.73;5.50;;;;;;;18.34;60.37;98121.34;5059342;28;20727;-71
2022/10/29 02:33:53;;;;;;;11.83;5.43;;;;;;;18.35;60.38;98123.00;5058110;28;20712;-70
2022/10/29 02:36:19;;;;;;;14.70;5.73;;;;;;;18.40;60.49;98125.91;5045152;28;20194;-71
2022/10/29 02:38:44;;;;;;;13.70;5.50;;;;;;;18.31;60.71;98117.25;5028576;28;20564;-70
2022/10/29 02:41:09;;;;;;;15.90;5.70;;;;;;;18.39;60.42;98124.31;5043292;28;20192;-71
2022/10/29 02:43:35;;;;;;;17.83;5.40;;;;;;;18.42;60.45;98127.41;5039243;28;20305;-71
2022/10/29 02:46:11;;;;;;;10.33;4.90;;;;;;;18.47;60.22;98113.59;5042066;28;20215;-70
2022/10/29 02:48:37;;;;;;;17.10;5.40;;;;;;;18.48;60.25;98107.28;5037694;28;20182;-71
2022/10/29 02:51:02;;;;;;;9.83;5.50;;;;;;;18.51;60.28;98106.94;5040844;28;20536;-70
2022/10/29 02:53:28;;;;;;;18.07;5.13;;;;;;;18.50;60.25;98105.28;5042978;28;20290;-70
2022/10/29 02:55:53;;;;;;;12.50;5.17;;;;;;;18.51;60.01;98100.78;5035200;28;20275;-70
2022/10/29 02:58:18;;;;;;;14.93;5.73;;;;;;;18.52;59.96;98097.97;5037814;28;20274;-71
2022/10/29 03:00:48;;;;;;;17.57;5.70;;;;;;;18.50;59.72;98099.13;5040317;28;20731;-71
2022/10/29 03:03:13;;;;;;;14.33;5.63;;;;;;;18.45;59.64;98096.22;5040062;28;20629;-71
2022/10/29 03:05:39;;;;;;;18.00;6.13;;;;;;;18.46;59.82;98096.03;5036483;28;20521;-70
2022/10/29 03:08:04;;;;;;;14.50;4.93;;;;;;;18.51;59.85;98098.13;5037269;28;20702;-70
2022/10/29 03:10:30;;;;;;;14.73;5.13;;;;;;;18.45;59.79;98090.91;5042322;28;20302;-70
2022/10/29 03:12:57;;;;;;;13.23;4.73;;;;;;;18.48;60.06;98095.81;5037427;28;20275;-70
2022/10/29 03:15:23;;;;;;;17.07;6.20;;;;;;;18.51;59.80;98106.94;5036250;28;20214;-71
2022/10/29 03:17:48;;;;;;;14.73;5.17;;;;;;;18.50;59.85;98115.06;5038169;28;20509;-70
2022/10/29 03:20:14;;;;;;;19.47;6.07;;;;;;;18.53;59.72;98109.38;5041525;28;20274;-70
2022/10/29 03:22:39;;;;;;;16.20;5.63;;;;;;;18.49;59.90;98108.94;5036345;28;20199;-71
2022/10/29 03:25:05;;;;;;;9.97;5.30;;;;;;;18.52;60.00;98110.41;5037308;28;20650;-70
2022/10/29 03:27:31;;;;;;;15.23;5.77;;;;;;;18.51;59.96;98106.09;5039056;28;20182;-70
2022/10/29 03:29:56;;;;;;;14.13;5.67;;;;;;;18.52;60.04;98105.94;5037533;28;20470;-70
2022/10/29 03:32:21;;;;;;;12.00;6.17;;;;;;;18.56;59.94;98104.53;5035469;28;20192;-70
2022/10/29 03:34:47;;;;;;;12.27;5.60;;;;;;;18.57;59.78;98106.19;5025118;28;20302;-70
2022/10/29 03:37:12;;;;;;;18.47;5.90;;;;;;;18.55;59.30;98102.06;5028507;28;20195;-71
2022/10/29 03:39:38;;;;;;;8.47;4.93;;;;;;;18.49;59.48;98093.00;5032506;28;20215;-71
2022/10/29 03:42:03;;;;;;;14.43;5.50;;;;;;;18.49;59.54;98108.94;5055654;28;20296;-71
2022/10/29 03:44:29;;;;;;;7.70;5.50;;;;;;;18.51;59.64;98096.31;5043898;28;20613;-70
2022/10/29 03:46:55;;;;;;;17.70;5.80;;;;;;;18.56;59.56;98099.22;5050143;28;20182;-70
2022/10/29 03:49:20;;;;;;;16.93;6.43;;;;;;;18.56;59.60;98093.91;5059538;28;20670;-70
2022/10/29 03:51:46;;;;;;;14.23;6.03;;;;;;;18.56;59.48;98099.22;5053064;28;20247;-70
2022/10/29 03:54:11;;;;;;;13.47;5.70;;;;;;;18.56;59.72;98099.22;5060861;28;20206;-70
2022/10/29 03:56:36;;;;;;;12.67;6.70;;;;;;;18.57;59.70;98100.06;5061348;28;20265;-71
2022/10/29 03:59:02;;;;;;;15.07;5.60;;;;;;;18.55;59.75;98105.53;5050070;28;20217;-69
2022/10/29 04:01:27;;;;;;;17.60;6.33;;;;;;;18.53;59.60;98099.59;5058792;28;20707;-71
2022/10/29 04:03:53;;;;;;;11.17;5.47;;;;;;;18.39;60.05;98095.13;5053253;28;20297;-70
2022/10/29 04:06:18;;;;;;;12.73;5.83;;;;;;;18.36;60.49;98090.97;5055015;28;20270;-71
2022/10/29 04:08:44;;;;;;;16.33;5.60;;;;;;;18.41;60.65;98098.38;5064929;28;20179;-71
2022/10/29 04:11:11;;;;;;;13.43;5.47;;;;;;;18.45;60.27;98097.03;5054679;28;20178;-70
2022/10/29 04:13:36;;;;;;;13.07;5.33;;;;;;;18.44;59.93;98100.69;5061760;28;20294;-70
2022/10/29 04:16:02;;;;;;;12.20;6.83;;;;;;;18.37;60.30;98110.38;5050874;28;20421;-70
2022/10/29 04:18:27;;;;;;;13.30;6.10;;;;;;;18.37;60.26;98102.41;5057070;28;20248;-70
2022/10/29 04:20:52;;;;;;;19.20;5.90;;;;;;;18.34;60.38;98105.44;5063925;28;20190;-70
2022/10/29 04:23:18;;;;;;;11.77;5.90;;;;;;;18.35;60.43;98102.59;5059042;28;20340;-70
2022/10/29 04:25:54;;;;;;;11.93;6.10;;;;;;;18.35;60.17;98104.44;5058798;28;20179;-70
2022/10/29 04:28:20;;;;;;;19.47;7.10;;;;;;;18.34;60.42;98108.09;5055499;28;20187;-71
2022/10/29 04:30:45;;;;;;;18.17;7.10;;;;;;;18.34;60.28;98100.94;5065879;28;20471;-70
2022/10/29 04:33:11;;;;;;;13.17;6.10;;;;;;;18.37;60.30;98100.56;5060069;28;20246;-70
2022/10/29 04:35:36;;;;;;;15.40;5.47;;;;;;;18.39;60.24;98103.88;5053601;28;20281;-69
2022/10/29 04:38:09;;;;;;;12.70;5.37;;;;;;;18.37;60.02;98100.56;5059915;28;20182;-70
2022/10/29 04:40:34;;;;;;;10.50;5.10;;;;;;;18.39;60.03;98100.41;5056164;28;20645;-70
2022/10/29 04:43:00;;;;;;;14.40;5.43;;;;;;;18.38;60.05;98094.28;5061002;28;20433;-71
2022/10/29 04:45:25;;;;;;;10.80;5.37;;;;;;;18.40;59.78;98100.22;5059691;28;20269;-70
2022/10/29 04:47:58;;;;;;;21.13;5.73;;;;;;;18.41;59.63;98101.88;5065021;28;20190;-70
2022/10/29 04:50:24;;;;;;;13.13;5.50;;;;;;;18.39;59.70;98100.41;5062350;28;20881;-70
2022/10/29 04:52:49;;;;;;;14.80;5.47;;;;;;;18.29;59.67;98095.34;5025474;28;20524;-70
2022/10/29 04:55:15;;;;;;;21.73;6.20;;;;;;;18.27;59.81;98100.81;5041528;28;20215;-70
2022/10/29 04:57:40;;;;;;;10.30;5.03;;;;;;;18.31;59.81;98103.13;5048996;28;20662;-70
2022/10/29 05:00:06;;;;;;;16.53;5.60;;;;;;;18.23;59.87;98102.22;5055815;28;20217;-70
2022/10/29 05:02:32;;;;;;;13.17;5.63;;;;;;;18.18;60.02;98101.91;5052097;28;20729;-70
2022/10/29 05:04:57;;;;;;;14.17;5.83;;;;;;;18.13;60.13;98104.28;5047521;28;20469;-70
2022/10/29 05:07:22;;;;;;;12.10;5.30;;;;;;;18.12;60.28;98107.94;5050368;28;20252;-70
2022/10/29 05:09:48;;;;;;;14.20;6.00;;;;;;;18.14;60.18;98100.66;5049218;28;20211;-70
2022/10/29 05:12:13;;;;;;;15.70;6.13;;;;;;;18.15;60.19;98109.41;5049100;28;20187;-69
2022/10/29 05:14:39;;;;;;;13.50;5.10;;;;;;;18.10;60.04;98105.47;5057169;28;20285;-70
2022/10/29 05:17:04;;;;;;;15.13;5.63;;;;;;;18.07;60.05;98105.84;5046141;28;20670;-69
2022/10/29 05:19:30;;;;;;;11.03;4.90;;;;;;;17.98;60.15;98092.81;5048073;28;20210;-69
2022/10/29 05:21:55;;;;;;;14.20;5.60;;;;;;;17.91;60.57;98101.44;5062749;28;20265;-70
2022/10/29 05:24:21;;;;;;;12.23;5.80;;;;;;;17.89;60.48;98098.16;5013258;28;20211;-71
2022/10/29 05:26:46;;;;;;;17.70;5.07;;;;;;;17.75;60.74;98096.28;5049518;28;20274;-70
2022/10/29 05:29:11;;;;;;;15.17;6.10;;;;;;;17.73;60.89;98100.91;5045202;28;20208;-70
2022/10/29 05:31:37;;;;;;;13.10;5.50;;;;;;;17.51;61.24;98100.72;5052640;28;20211;-69
2022/10/29 05:34:02;;;;;;;25.67;6.23;;;;;;;17.52;61.41;98098.91;5051222;28;20302;-70
2022/10/29 05:36:28;;;;;;;10.13;5.50;;;;;;;17.53;61.64;98098.72;5034987;28;20190;-70
2022/10/29 05:38:53;;;;;;;11.93;5.83;;;;;;;17.58;61.51;98093.72;5050510;28;20187;-70
2022/10/29 05:41:19;;;;;;;16.73;5.87;;;;;;;17.52;61.51;98102.34;5058050;28;20197;-71
2022/10/29 05:43:47;;;;;;;18.30;6.23;;;;;;;17.53;61.53;98096.06;5052603;28;20678;-70
2022/10/29 05:46:12;;;;;;;10.30;5.33;;;;;;;17.54;61.25;98092.41;5052053;28;20187;-70
2022/10/29 05:48:38;;;;;;;10.37;5.73;;;;;;;17.57;61.12;98089.41;5048793;28;20878;-70
2022/10/29 05:51:03;;;;;;;14.53;5.80;;;;;;;17.53;61.24;98100.53;5049118;28;20242;-70
2022/10/29 05:53:29;;;;;;;14.63;6.40;;;;;;;17.54;60.88;98095.06;5047143;28;20210;-70
2022/10/29 05:55:54;;;;;;;14.20;6.00;;;;;;;17.55;60.71;98090.59;5052744;28;20215;-70
2022/10/29 05:58:20;;;;;;;13.30;5.20;;;;;;;17.56;60.63;98090.41;5051366;28;20603;-70
2022/10/29 06:00:45;;;;;;;27.53;6.50;;;;;;;17.59;60.46;98097.19;5052277;28;20179;-70
2022/10/29 06:03:13;;;;;;;16.07;5.47;;;;;;;17.60;60.45;98104.13;5051342;28;20285;-70
2022/10/29 06:05:38;;;;;;;23.37;6.30;;;;;;;17.55;60.43;98101.19;5056403;28;20245;-69
2022/10/29 06:08:04;;;;;;;12.03;5.40;;;;;;;17.50;60.75;98112.34;5050181;28;20442;-70
2022/10/29 06:10:29;;;;;;;11.77;4.90;;;;;;;17.44;60.90;98113.00;5045290;28;20246;-70
2022/10/29 06:12:55;;;;;;;12.23;5.20;;;;;;;17.45;61.00;98104.06;5052058;28;20270;-70
2022/10/29 06:15:20;;;;;;;13.90;5.70;;;;;;;17.38;61.04;98100.47;5059673;28;20241;-71
2022/10/29 06:17:46;;;;;;;18.90;7.10;;;;;;;17.39;61.13;98113.53;5049725;28;20191;-70
2022/10/29 06:20:13;;;;;;;13.37;6.90;;;;;;;17.36;61.25;98105.94;5050782;28;20264;-71
2022/10/29 06:22:39;;;;;;;11.93;5.80;;;;;;;17.41;60.92;98106.25;5052378;28;20187;-70
2022/10/29 06:25:05;;;;;;;15.40;5.67;;;;;;;17.28;60.95;98112.09;5051406;28;20472;-71
2022/10/29 06:27:30;;;;;;;14.40;6.17;;;;;;;17.34;61.08;98111.41;5050069;28;20194;-71
2022/10/29 06:29:55;;;;;;;16.70;6.60;;;;;;;17.40;60.74;98115.19;5050661;28;20515;-70
2022/10/29 06:32:21;;;;;;;12.30;5.73;;;;;;;17.40;61.03;98124.94;5051267;28;20187;-70
2022/10/29 06:34:46;;;;;;;19.63;6.10;;;;;;;17.47;61.04;98123.28;5051737;28;20713;-71
2022/10/29 06:37:12;;;;;;;7.97;5.90;;;;;;;17.49;60.96;98114.13;5047769;28;20282;-70
2022/10/29 06:39:37;;;;;;;15.73;5.77;;;;;;;17.51;60.66;98111.34;5051004;28;20183;-70
2022/10/29 06:42:03;;;;;;;14.40;6.43;;;;;;;17.51;60.76;98108.69;5058068;28;20185;-71
2022/10/29 06:44:28;;;;;;;17.97;6.17;;;;;;;17.58;60.75;98112.28;5051215;28;20223;-70
2022/10/29 06:46:54;;;;;;;17.77;6.40;;;;;;;17.61;60.79;98106.63;5050809;28;20194;-70
2022/10/29 06:49:19;;;;;;;14.53;6.23;;;;;;;17.66;60.53;98112.22;5050803;28;20295;-70
2022/10/29 06:51:45;;;;;;;11.30;6.20;;;;;;;17.74;60.61;98110.53;5047840;28;20190;-70
2022/10/29 06:54:11;;;;;;;15.00;6.20;;;;;;;17.77;60.54;98116.28;5046710;28;20209;-70
2022/10/29 06:56:36;;;;;;;14.03;5.87;;;;;;;17.85;60.35;98111.91;5051173;28;20179;-71
2022/10/29 06:59:01;;;;;;;16.27;5.40;;;;;;;17.92;60.33;98113.69;5049442;28;20261;-71
2022/10/29 07:01:29;;;;;;;15.70;5.97;;;;;;;17.94;59.84;98116.19;5049873;28;20183;-70
2022/10/29 07:03:54;;;;;;;9.60;5.20;;;;;;;18.03;60.01;98116.94;5051361;28;20841;-71
2022/10/29 07:06:19;;;;;;;9.60;6.50;;;;;;;18.10;59.62;98110.75;5054869;28;20421;-70
2022/10/29 07:08:45;;;;;;;13.40;5.60;;;;;;;18.18;59.51;98115.19;5057763;28;20615;-70
2022/10/29 07:11:10;;;;;;;14.73;5.60;;;;;;;18.23;59.32;98114.63;5051378;28;20266;-71
2022/10/29 07:13:36;;;;;;;12.77;5.13;;;;;;;18.20;59.37;98109.72;5051950;28;20286;-70
2022/10/29 07:16:01;;;;;;;10.27;5.10;;;;;;;18.27;59.16;98114.09;5050224;28;20183;-70
2022/10/29 07:18:27;;;;;;;11.70;5.00;;;;;;;18.28;58.53;98117.59;5055470;28;20709;-70
2022/10/29 07:20:52;;;;;;;11.63;5.90;;;;;;;18.37;58.61;98119.16;5045772;28;20608;-70
2022/10/29 07:23:17;;;;;;;21.20;5.77;;;;;;;18.45;58.26;98112.94;5050986;28;20195;-71
2022/10/29 07:25:43;;;;;;;16.27;5.10;;;;;;;18.55;58.27;98118.00;5046733;28;20187;-70
2022/10/29 07:28:17;;;;;;;15.67;4.80;;;;;;;18.67;58.11;98126.31;5049820;28;20710;-70
2022/10/29 07:30:43;;;;;;;16.43;5.47;;;;;;;18.70;57.50;98124.16;5051378;28;20268;-70
2022/10/29 07:33:09;;;;;;;18.60;4.83;;;;;;;18.79;57.56;98134.69;5046007;28;20441;-70
2022/10/29 07:35:35;;;;;;;11.13;4.83;;;;;;;18.84;57.26;98127.81;5051154;28;20441;-71
2022/10/29 07:38:01;;;;;;;16.53;5.60;;;;;;;18.95;57.15;98126.56;5054473;28;20195;-70
2022/10/29 07:40:27;;;;;;;12.60;4.77;;;;;;;19.05;57.09;98130.78;5052184;28;20592;-71
2022/10/29 07:42:53;;;;;;;14.83;5.47;;;;;;;19.13;56.84;98128.84;5055955;28;20421;-71
2022/10/29 07:45:18;;;;;;;20.47;5.00;;;;;;;19.26;56.46;98130.03;5050421;28;20218;-70
2022/10/29 07:47:44;;;;;;;11.03;4.80;;;;;;;19.41;56.51;98128.13;5050181;28;20191;-70
2022/10/29 07:50:10;;;;;;;13.47;5.10;;;;;;;19.58;56.14;98133.25;5050002;28;20286;-71
2022/10/29 07:52:35;;;;;;;12.00;4.60;;;;;;;19.78;55.78;98139.59;5051339;28;20643;-70
2022/10/29 07:55:01;;;;;;;13.23;4.47;;;;;;;20.03;55.61;98136.63;5050919;28;20441;-70
2022/10/29 07:57:27;;;;;;;16.30;5.10;;;;;;;20.27;54.86;98137.22;5058078;28;20551;-71
2022/10/29 07:59:52;;;;;;;10.87;5.40;;;;;;;20.58;54.87;98143.19;5052955;28;20184;-71
2022/10/29 08:02:18;;;;;;;16.57;5.40;;;;;;;20.86;53.68;98141.34;5048898;28;20190;-70
2022/10/29 08:04:43;;;;;;;20.77;4.80;;;;;;;21.13;52.78;98135.34;5050406;28;20668;-70
2022/10/29 08:07:09;;;;;;;15.60;5.60;;;;;;;21.42;51.80;98139.56;5055855;28;20559;-71
2022/10/29 08:09:34;;;;;;;12.00;4.70;;;;;;;21.68;51.02;98137.22;5047986;28;20290;-71
2022/10/29 08:12:00;;;;;;;14.80;4.53;;;;;;;21.88;50.04;98127.41;5050710;28;20187;-72
2022/10/29 08:14:25;;;;;;;9.53;4.40;;;;;;;22.20;49.86;98127.63;5055054;28;20207;-71
2022/10/29 08:16:53;;;;;;;16.70;4.87;;;;;;;22.50;49.31;98129.94;5049525;28;20211;-71
2022/10/29 08:19:19;;;;;;;10.93;4.23;;;;;;;22.76;47.36;98135.44;5050136;28;20555;-70
2022/10/29 08:21:45;;;;;;;18.17;4.57;;;;;;;23.09;47.07;98126.53;5050695;28;20421;-70
2022/10/29 08:24:10;;;;;;;11.37;4.70;;;;;;;23.41;46.69;98135.50;5050188;28;20210;-70
2022/10/29 08:26:35;;;;;;;19.83;4.47;;;;;;;23.70;45.99;98127.09;5044973;28;20578;-72
2022/10/29 08:29:01;;;;;;;25.33;5.20;;;;;;;24.02;45.59;98129.81;5050916;28;20278;-70
2022/10/29 08:31:26;;;;;;;12.53;4.30;;;;;;;24.29;44.89;98125.06;5049608;28;20209;-71
2022/10/29 08:33:52;;;;;;;14.07;4.30;;;;;;;24.42;43.77;98128.69;5049967;28;20703;-72
2022/10/29 08:36:17;;;;;;;12.90;4.73;;;;;;;24.50;43.33;98133.75;5054184;28;20660;-71
2022/10/29 08:38:42;;;;;;;15.07;4.30;;;;;;;24.58;43.42;98129.97;5050259;28;20237;-71
2022/10/29 08:41:28;;;;;;;17.73;4.90;;;;;;;24.65;42.26;98134.22;5056757;28;20171;-71
2022/10/29 08:44:05;;;;;;;18.93;4.10;;;;;;;24.68;42.08;98125.75;5049661;28;20202;-72
2022/10/29 08:46:43;;;;;;;11.83;4.60;;;;;;;24.54;42.53;98132.28;5043551;28;20417;-71
2022/10/29 08:49:25;;;;;;;17.73;4.60;;;;;;;24.62;42.11;98133.88;5047680;28;20440;-71
2022/10/29 08:51:56;;;;;;;10.70;4.40;;;;;;;24.80;42.49;98127.72;5049498;28;20936;-70
2022/10/29 08:54:22;;;;;;;14.20;4.63;;;;;;;25.07;41.84;98130.94;5053446;28;20445;-71
2022/10/29 08:56:51;;;;;;;18.53;4.80;;;;;;;25.29;41.56;98123.25;5051302;28;21085;-71
2022/10/29 08:59:20;;;;;;;9.93;3.97;;;;;;;25.42;40.87;98122.28;5046567;28;20420;-70
2022/10/29 09:01:46;;;;;;;23.97;4.90;;;;;;;25.67;41.43;98121.34;5043904;28;20418;-71
2022/10/29 09:04:21;;;;;;;16.20;4.67;;;;;;;25.95;41.13;98121.78;5039026;28;20442;-70
2022/10/29 09:07:14;;;;;;;15.67;4.23;;;;;;;26.07;40.10;98122.63;5040609;28;20211;-71
2022/10/29 09:09:45;;;;;;;16.40;4.73;;;;;;;26.29;39.71;98120.22;5034747;28;20500;-72
2022/10/29 09:12:43;;;;;;;20.07;5.20;;;;;;;26.48;39.58;98129.00;5033221;28;20423;-71
2022/10/29 09:15:11;;;;;;;8.67;4.77;;;;;;;26.71;39.40;98126.53;5037643;28;20442;-69
2022/10/29 09:18:01;;;;;;;17.20;5.03;;;;;;;26.97;38.72;98126.06;5035497;28;20953;-69
2022/10/29 09:20:39;;;;;;;14.43;4.97;;;;;;;27.23;38.61;98123.91;5038777;28;20426;-71
2022/10/29 09:23:25;;;;;;;10.40;4.53;;;;;;;27.11;38.27;98123.94;5035104;28;21154;-72
2022/10/29 09:26:10;;;;;;;7.57;4.07;;;;;;;27.23;38.05;98117.69;5036003;28;20966;-71
2022/10/29 09:28:42;;;;;;;16.60;4.27;;;;;;;27.41;37.71;98114.84;5036794;28;20406;-71
2022/10/29 09:31:22;;;;;;;17.53;3.83;;;;;;;27.72;37.88;98104.66;5039721;28;20536;-72
2022/10/29 09:33:50;;;;;;;11.10;3.77;;;;;;;28.00;37.42;98105.66;5033693;28;20446;-70
2022/10/29 09:36:21;;;;;;;22.13;4.30;;;;;;;27.99;36.59;98098.66;5040496;28;20480;-71
2022/10/29 09:38:57;;;;;;;27.67;4.40;;;;;;;27.93;36.48;98099.63;5037990;28;20500;-71
2022/10/29 09:41:25;;;;;;;14.83;4.73;;;;;;;28.17;36.99;98100.31;5041488;28;20425;-70
2022/10/29 09:44:10;;;;;;;10.23;3.80;;;;;;;28.41;36.27;98104.72;5034515;28;20569;-70
2022/10/29 09:46:51;;;;;;;14.00;3.80;;;;;;;28.45;36.20;98101.28;5032869;28;21052;-71
2022/10/29 09:49:38;;;;;;;19.97;3.80;;;;;;;28.78;35.98;98105.03;5039535;28;20511;-71
2022/10/29 09:52:09;;;;;;;13.53;3.93;;;;;;;28.94;35.60;98108.72;5034846;28;20967;-70
2022/10/29 09:54:34;;;;;;;17.70;3.87;;;;;;;28.66;35.32;98112.38;5049671;28;21040;-71
2022/10/29 09:57:01;;;;;;;22.23;4.90;;;;;;;28.99;34.18;98099.06;5033135;28;20517;-71
2022/10/29 09:59:36;;;;;;;14.70;3.97;;;;;;;28.77;35.18;98103.38;5037643;28;20667;-71
2022/10/29 10:02:06;;;;;;;16.23;4.60;;;;;;;28.88;34.74;98101.63;5035006;28;20459;-70
2022/10/29 10:04:42;;;;;;;19.73;3.97;;;;;;;29.00;35.18;98106.06;5038813;28;21924;-70
2022/10/29 10:07:10;;;;;;;24.90;5.07;;;;;;;29.12;34.84;98104.06;5040021;28;20856;-72
2022/10/29 10:09:57;;;;;;;15.03;4.50;;;;;;;29.40;34.77;98099.56;5045204;28;20976;-71
2022/10/29 10:12:28;;;;;;;13.23;4.00;;;;;;;29.46;34.14;98093.16;5037700;28;20557;-71
2022/10/29 10:15:02;;;;;;;16.23;4.60;;;;;;;29.41;34.77;98085.00;5035980;28;20477;-71
2022/10/29 10:17:27;;;;;;;21.13;4.50;;;;;;;29.77;34.60;98096.16;5037358;28;20452;-71
2022/10/29 10:19:53;;;;;;;32.77;4.80;;;;;;;30.13;33.83;98091.06;5038736;28;20425;-72
2022/10/29 10:22:21;;;;;;;10.17;3.63;;;;;;;29.95;33.37;98084.19;5037391;28;20218;-71
2022/10/29 10:24:46;;;;;;;22.10;4.90;;;;;;;29.75;33.25;98092.88;5037491;28;20207;-71
2022/10/29 10:27:18;;;;;;;17.53;3.80;;;;;;;29.72;33.74;98088.81;5034590;28;20537;-71
2022/10/29 10:30:03;;;;;;;10.73;4.00;;;;;;;29.65;34.18;98100.91;5035702;28;20215;-71
2022/10/29 10:32:28;;;;;;;15.37;4.10;;;;;;;30.06;33.38;98074.28;5035668;28;20786;-71
2022/10/29 10:34:54;;;;;;;11.30;4.03;;;;;;;29.96;33.79;98079.59;5037220;28;20454;-71
2022/10/29 10:37:20;;;;;;;14.10;3.93;;;;;;;30.06;33.39;98076.16;5042208;28;20617;-70
2022/10/29 10:40:00;;;;;;;16.93;3.90;;;;;;;30.03;33.68;98080.19;5033641;28;20623;-70
2022/10/29 10:42:33;;;;;;;13.50;4.20;;;;;;;30.00;34.22;98069.88;5041873;28;20174;-71
2022/10/29 10:45:10;;;;;;;27.77;4.00;;;;;;;30.35;33.56;98071.25;5034329;28;20807;-71
2022/10/29 10:47:36;;;;;;;13.70;3.90;;;;;;;30.45;33.13;98060.47;5032437;28;20430;-71
2022/10/29 10:50:24;;;;;;;17.30;6.73;;;;;;;30.68;33.09;98061.16;5036372;28;20465;-71
2022/10/29 10:52:53;;;;;;;12.73;5.13;;;;;;;30.77;32.57;98062.28;5032603;28;20230;-72
2022/10/29 10:55:26;;;;;;;9.00;3.90;;;;;;;30.80;32.85;98056.34;5042072;28;20426;-71
2022/10/29 10:58:16;;;;;;;13.93;4.03;;;;;;;30.99;32.38;98050.50;5038399;28;20537;-71
2022/10/29 11:00:46;;;;;;;10.60;3.30;;;;;;;31.32;32.87;98053.84;5033505;28;20495;-72
2022/10/29 11:03:22;;;;;;;18.73;3.80;;;;;;;31.21;32.82;98049.50;5034251;28;20465;-71
2022/10/29 11:06:05;;;;;;;19.37;3.43;;;;;;;31.40;30.45;98041.69;5032578;28;20418;-71
2022/10/29 11:08:39;;;;;;;21.50;3.50;;;;;;;31.52;29.49;98044.13;5036086;28;20555;-70
2022/10/29 11:11:31;;;;;;;11.13;3.37;;;;;;;31.47;29.25;98046.84;5038055;28;20507;-71
2022/10/29 11:13:59;;;;;;;13.53;3.60;;;;;;;31.67;29.00;98040.63;5035842;28;20441;-71
2022/10/29 11:16:44;;;;;;;7.53;3.30;;;;;;;31.85;29.58;98036.59;5036214;28;20430;-71
2022/10/29 11:19:23;;;;;;;21.70;3.73;;;;;;;31.96;28.90;98038.22;5034101;28;20450;-71
2022/10/29 11:22:12;;;;;;;10.77;3.30;;;;;;;32.02;28.89;98022.75;5041324;28;20418;-71
2022/10/29 11:24:52;;;;;;;12.97;3.30;;;;;;;31.92;29.01;98026.28;5046595;28;20814;-71
2022/10/29 11:27:39;;;;;;;15.23;3.83;;;;;;;32.08;29.35;98021.66;5020538;28;20536;-70
2022/10/29 11:30:12;;;;;;;9.33;3.03;;;;;;;31.98;29.42;98025.22;5043675;28;20470;-71
2022/10/29 11:32:59;;;;;;;8.93;3.23;;;;;;;31.76;29.00;98024.69;5038815;28;20452;-71
2022/10/29 11:35:40;;;;;;;10.10;3.00;;;;;;;31.85;29.64;98025.75;5040374;28;20433;-71